sensor_id;sensor_type;location;lat;lon;timestamp;P1;durP1;ratioP1;P2;durP2;ratioP2
79126;SDS011;68528;48.814;8.904;2023-08-17T00:00:09;7.53;;;5.05;;
79126;SDS011;68528;48.814;8.904;2023-08-17T00:02:43;7.18;;;5.28;;
79126;SDS011;68528;48.814;8.904;2023-08-17T00:05:10;7.30;;;4.70;;
79126;SDS011;68528;48.814;8.904;2023-08-17T00:07:36;5.68;;;4.40;;
79126;SDS011;68528;48.814;8.904;2023-08-17T00:10:02;7.50;;;3.55;;
79126;SDS011;68528;48.814;8.904;2023-08-17T00:12:28;6.80;;;3.60;;
79126;SDS011;68528;48.814;8.904;2023-08-17T00:14:54;6.60;;;4.57;;
79126;SDS011;68528;48.814;8.904;2023-08-17T00:17:20;4.47;;;4.00;;
79126;SDS011;68528;48.814;8.904;2023-08-17T00:19:48;6.15;;;4.95;;
79126;SDS011;68528;48.814;8.904;2023-08-17T00:22:15;6.20;;;3.92;;
79126;SDS011;68528;48.814;8.904;2023-08-17T00:24:40;7.97;;;4.95;;
79126;SDS011;68528;48.814;8.904;2023-08-17T00:27:06;6.13;;;3.80;;
79126;SDS011;68528;48.814;8.904;2023-08-17T00:29:32;6.55;;;4.03;;
79126;SDS011;68528;48.814;8.904;2023-08-17T00:32:00;8.10;;;3.65;;
79126;SDS011;68528;48.814;8.904;2023-08-17T00:34:27;5.50;;;3.92;;
79126;SDS011;68528;48.814;8.904;2023-08-17T00:37:02;4.88;;;3.90;;
79126;SDS011;68528;48.814;8.904;2023-08-17T00:39:27;8.77;;;5.13;;
79126;SDS011;68528;48.814;8.904;2023-08-17T00:41:52;6.80;;;4.38;;
79126;SDS011;68528;48.814;8.904;2023-08-17T00:44:19;5.35;;;4.20;;
79126;SDS011;68528;48.814;8.904;2023-08-17T00:46:44;6.57;;;4.70;;
79126;SDS011;68528;48.814;8.904;2023-08-17T00:49:11;5.43;;;4.50;;
79126;SDS011;68528;48.814;8.904;2023-08-17T00:51:37;6.80;;;4.47;;
79126;SDS011;68528;48.814;8.904;2023-08-17T00:54:16;6.25;;;4.05;;
79126;SDS011;68528;48.814;8.904;2023-08-17T00:56:48;5.50;;;3.92;;
79126;SDS011;68528;48.814;8.904;2023-08-17T00:59:14;5.20;;;3.42;;
79126;SDS011;68528;48.814;8.904;2023-08-17T01:01:41;4.88;;;3.65;;
79126;SDS011;68528;48.814;8.904;2023-08-17T01:04:08;6.35;;;4.00;;
79126;SDS011;68528;48.814;8.904;2023-08-17T01:06:35;6.80;;;4.30;;
79126;SDS011;68528;48.814;8.904;2023-08-17T01:09:00;5.78;;;3.28;;
79126;SDS011;68528;48.814;8.904;2023-08-17T01:14:09;7.45;;;4.10;;
79126;SDS011;68528;48.814;8.904;2023-08-17T01:19:31;5.53;;;4.13;;
79126;SDS011;68528;48.814;8.904;2023-08-17T01:22:03;7.50;;;4.20;;
79126;SDS011;68528;48.814;8.904;2023-08-17T01:24:30;5.75;;;3.92;;
79126;SDS011;68528;48.814;8.904;2023-08-17T01:26:56;7.45;;;4.93;;
79126;SDS011;68528;48.814;8.904;2023-08-17T01:29:26;8.73;;;4.53;;
79126;SDS011;68528;48.814;8.904;2023-08-17T01:31:56;5.45;;;4.20;;
79126;SDS011;68528;48.814;8.904;2023-08-17T01:34:59;6.50;;;4.25;;
79126;SDS011;68528;48.814;8.904;2023-08-17T01:37:29;7.13;;;4.22;;
79126;SDS011;68528;48.814;8.904;2023-08-17T01:39:59;8.45;;;5.05;;
79126;SDS011;68528;48.814;8.904;2023-08-17T01:42:24;8.38;;;4.50;;
79126;SDS011;68528;48.814;8.904;2023-08-17T01:44:50;6.05;;;4.43;;
79126;SDS011;68528;48.814;8.904;2023-08-17T01:47:20;6.05;;;4.30;;
79126;SDS011;68528;48.814;8.904;2023-08-17T01:49:46;6.53;;;5.40;;
79126;SDS011;68528;48.814;8.904;2023-08-17T01:52:12;8.90;;;5.13;;
79126;SDS011;68528;48.814;8.904;2023-08-17T01:54:38;6.30;;;4.53;;
79126;SDS011;68528;48.814;8.904;2023-08-17T01:57:03;11.25;;;5.40;;
79126;SDS011;68528;48.814;8.904;2023-08-17T01:59:32;6.13;;;4.00;;
79126;SDS011;68528;48.814;8.904;2023-08-17T02:01:58;6.85;;;3.53;;
79126;SDS011;68528;48.814;8.904;2023-08-17T02:04:23;6.72;;;4.88;;
79126;SDS011;68528;48.814;8.904;2023-08-17T02:06:49;8.90;;;4.88;;
79126;SDS011;68528;48.814;8.904;2023-08-17T02:09:15;6.70;;;3.95;;
79126;SDS011;68528;48.814;8.904;2023-08-17T02:11:42;5.88;;;3.97;;
79126;SDS011;68528;48.814;8.904;2023-08-17T02:14:07;7.07;;;4.50;;
79126;SDS011;68528;48.814;8.904;2023-08-17T02:16:33;7.03;;;3.92;;
79126;SDS011;68528;48.814;8.904;2023-08-17T02:18:59;5.90;;;3.95;;
79126;SDS011;68528;48.814;8.904;2023-08-17T02:21:24;5.70;;;3.63;;
79126;SDS011;68528;48.814;8.904;2023-08-17T02:23:50;7.00;;;4.40;;
79126;SDS011;68528;48.814;8.904;2023-08-17T02:26:17;7.10;;;4.88;;
79126;SDS011;68528;48.814;8.904;2023-08-17T02:28:43;9.45;;;5.10;;
79126;SDS011;68528;48.814;8.904;2023-08-17T02:31:09;6.07;;;4.53;;
79126;SDS011;68528;48.814;8.904;2023-08-17T02:33:34;7.57;;;5.15;;
79126;SDS011;68528;48.814;8.904;2023-08-17T02:36:01;5.75;;;4.13;;
79126;SDS011;68528;48.814;8.904;2023-08-17T02:38:27;7.05;;;4.90;;
79126;SDS011;68528;48.814;8.904;2023-08-17T02:40:52;8.98;;;5.05;;
79126;SDS011;68528;48.814;8.904;2023-08-17T02:43:18;6.30;;;5.27;;
79126;SDS011;68528;48.814;8.904;2023-08-17T02:45:43;7.05;;;5.15;;
79126;SDS011;68528;48.814;8.904;2023-08-17T02:48:08;8.32;;;5.25;;
79126;SDS011;68528;48.814;8.904;2023-08-17T02:50:34;8.27;;;5.30;;
79126;SDS011;68528;48.814;8.904;2023-08-17T02:52:59;6.65;;;5.30;;
79126;SDS011;68528;48.814;8.904;2023-08-17T02:55:25;7.82;;;4.65;;
79126;SDS011;68528;48.814;8.904;2023-08-17T02:57:50;10.15;;;5.20;;
79126;SDS011;68528;48.814;8.904;2023-08-17T03:00:31;6.82;;;4.60;;
79126;SDS011;68528;48.814;8.904;2023-08-17T03:02:59;9.48;;;5.25;;
79126;SDS011;68528;48.814;8.904;2023-08-17T03:05:24;6.45;;;3.88;;
79126;SDS011;68528;48.814;8.904;2023-08-17T03:07:50;6.72;;;4.30;;
79126;SDS011;68528;48.814;8.904;2023-08-17T03:10:16;6.32;;;4.03;;
79126;SDS011;68528;48.814;8.904;2023-08-17T03:12:42;9.05;;;5.55;;
79126;SDS011;68528;48.814;8.904;2023-08-17T03:15:08;13.38;;;6.15;;
79126;SDS011;68528;48.814;8.904;2023-08-17T03:17:33;14.73;;;6.60;;
79126;SDS011;68528;48.814;8.904;2023-08-17T03:20:05;11.70;;;6.05;;
79126;SDS011;68528;48.814;8.904;2023-08-17T03:22:33;9.98;;;5.85;;
79126;SDS011;68528;48.814;8.904;2023-08-17T03:25:01;11.75;;;6.25;;
79126;SDS011;68528;48.814;8.904;2023-08-17T03:27:27;13.02;;;7.63;;
79126;SDS011;68528;48.814;8.904;2023-08-17T03:29:53;12.75;;;6.75;;
79126;SDS011;68528;48.814;8.904;2023-08-17T03:32:19;16.67;;;7.45;;
79126;SDS011;68528;48.814;8.904;2023-08-17T03:34:44;27.60;;;9.43;;
79126;SDS011;68528;48.814;8.904;2023-08-17T03:37:10;39.28;;;10.00;;
79126;SDS011;68528;48.814;8.904;2023-08-17T03:40:00;13.45;;;7.70;;
79126;SDS011;68528;48.814;8.904;2023-08-17T03:42:26;14.60;;;7.93;;
79126;SDS011;68528;48.814;8.904;2023-08-17T03:44:52;12.88;;;7.10;;
79126;SDS011;68528;48.814;8.904;2023-08-17T03:47:18;14.02;;;7.57;;
79126;SDS011;68528;48.814;8.904;2023-08-17T03:49:43;24.13;;;8.80;;
79126;SDS011;68528;48.814;8.904;2023-08-17T03:52:09;37.88;;;8.95;;
79126;SDS011;68528;48.814;8.904;2023-08-17T03:54:35;24.70;;;7.97;;
79126;SDS011;68528;48.814;8.904;2023-08-17T03:57:01;22.80;;;7.80;;
79126;SDS011;68528;48.814;8.904;2023-08-17T03:59:33;12.05;;;5.78;;
79126;SDS011;68528;48.814;8.904;2023-08-17T04:01:58;20.85;;;7.90;;
79126;SDS011;68528;48.814;8.904;2023-08-17T04:04:24;18.20;;;7.68;;
79126;SDS011;68528;48.814;8.904;2023-08-17T04:06:49;16.80;;;7.03;;
79126;SDS011;68528;48.814;8.904;2023-08-17T04:09:14;17.88;;;7.70;;
79126;SDS011;68528;48.814;8.904;2023-08-17T04:11:40;15.95;;;7.63;;
79126;SDS011;68528;48.814;8.904;2023-08-17T04:14:05;17.77;;;7.50;;
79126;SDS011;68528;48.814;8.904;2023-08-17T04:16:40;20.48;;;8.20;;
79126;SDS011;68528;48.814;8.904;2023-08-17T04:19:05;20.95;;;7.70;;
79126;SDS011;68528;48.814;8.904;2023-08-17T04:21:31;21.55;;;7.90;;
79126;SDS011;68528;48.814;8.904;2023-08-17T04:23:56;29.73;;;8.43;;
79126;SDS011;68528;48.814;8.904;2023-08-17T04:26:21;24.55;;;8.48;;
79126;SDS011;68528;48.814;8.904;2023-08-17T04:28:47;20.63;;;6.82;;
79126;SDS011;68528;48.814;8.904;2023-08-17T04:31:12;20.33;;;7.68;;
79126;SDS011;68528;48.814;8.904;2023-08-17T04:33:39;20.02;;;7.45;;
79126;SDS011;68528;48.814;8.904;2023-08-17T04:36:05;17.38;;;6.30;;
79126;SDS011;68528;48.814;8.904;2023-08-17T04:38:30;15.45;;;6.28;;
79126;SDS011;68528;48.814;8.904;2023-08-17T04:40:55;17.00;;;6.03;;
79126;SDS011;68528;48.814;8.904;2023-08-17T04:43:21;17.55;;;6.78;;
79126;SDS011;68528;48.814;8.904;2023-08-17T04:45:46;20.17;;;7.38;;
79126;SDS011;68528;48.814;8.904;2023-08-17T04:48:12;12.35;;;5.90;;
79126;SDS011;68528;48.814;8.904;2023-08-17T04:50:53;10.90;;;5.43;;
79126;SDS011;68528;48.814;8.904;2023-08-17T04:53:20;23.73;;;8.10;;
79126;SDS011;68528;48.814;8.904;2023-08-17T04:55:46;11.90;;;6.45;;
79126;SDS011;68528;48.814;8.904;2023-08-17T04:58:11;13.73;;;6.40;;
79126;SDS011;68528;48.814;8.904;2023-08-17T05:00:36;16.42;;;6.13;;
79126;SDS011;68528;48.814;8.904;2023-08-17T05:03:02;12.93;;;5.95;;
79126;SDS011;68528;48.814;8.904;2023-08-17T05:05:28;17.13;;;6.38;;
79126;SDS011;68528;48.814;8.904;2023-08-17T05:07:53;12.27;;;6.38;;
79126;SDS011;68528;48.814;8.904;2023-08-17T05:10:19;19.30;;;7.18;;
79126;SDS011;68528;48.814;8.904;2023-08-17T05:12:50;13.85;;;6.75;;
79126;SDS011;68528;48.814;8.904;2023-08-17T05:15:17;20.90;;;8.07;;
79126;SDS011;68528;48.814;8.904;2023-08-17T05:17:42;33.47;;;10.10;;
79126;SDS011;68528;48.814;8.904;2023-08-17T05:20:08;23.93;;;8.77;;
79126;SDS011;68528;48.814;8.904;2023-08-17T05:22:33;36.08;;;10.25;;
79126;SDS011;68528;48.814;8.904;2023-08-17T05:24:59;23.23;;;8.50;;
79126;SDS011;68528;48.814;8.904;2023-08-17T05:27:24;25.05;;;9.00;;
79126;SDS011;68528;48.814;8.904;2023-08-17T05:29:50;35.08;;;9.77;;
79126;SDS011;68528;48.814;8.904;2023-08-17T05:32:35;19.98;;;8.02;;
79126;SDS011;68528;48.814;8.904;2023-08-17T05:35:01;25.85;;;9.23;;
79126;SDS011;68528;48.814;8.904;2023-08-17T05:37:26;23.55;;;9.15;;
79126;SDS011;68528;48.814;8.904;2023-08-17T05:39:51;24.43;;;8.93;;
79126;SDS011;68528;48.814;8.904;2023-08-17T05:42:17;28.02;;;9.95;;
79126;SDS011;68528;48.814;8.904;2023-08-17T05:44:42;29.85;;;10.52;;
79126;SDS011;68528;48.814;8.904;2023-08-17T05:47:10;25.55;;;9.90;;
79126;SDS011;68528;48.814;8.904;2023-08-17T05:49:44;26.38;;;9.73;;
79126;SDS011;68528;48.814;8.904;2023-08-17T05:52:18;21.60;;;8.25;;
79126;SDS011;68528;48.814;8.904;2023-08-17T05:54:45;24.00;;;10.45;;
79126;SDS011;68528;48.814;8.904;2023-08-17T05:57:34;24.02;;;9.85;;
79126;SDS011;68528;48.814;8.904;2023-08-17T06:00:48;22.92;;;9.77;;
79126;SDS011;68528;48.814;8.904;2023-08-17T06:03:52;24.65;;;9.55;;
79126;SDS011;68528;48.814;8.904;2023-08-17T06:06:38;33.13;;;9.95;;
79126;SDS011;68528;48.814;8.904;2023-08-17T06:09:41;18.98;;;9.93;;
79126;SDS011;68528;48.814;8.904;2023-08-17T06:12:12;18.88;;;9.25;;
79126;SDS011;68528;48.814;8.904;2023-08-17T06:14:38;15.52;;;9.60;;
79126;SDS011;68528;48.814;8.904;2023-08-17T06:17:12;34.00;;;11.57;;
79126;SDS011;68528;48.814;8.904;2023-08-17T06:19:39;22.77;;;11.25;;
79126;SDS011;68528;48.814;8.904;2023-08-17T06:24:41;21.50;;;10.65;;
79126;SDS011;68528;48.814;8.904;2023-08-17T06:27:06;16.30;;;9.13;;
79126;SDS011;68528;48.814;8.904;2023-08-17T06:29:33;14.73;;;9.18;;
79126;SDS011;68528;48.814;8.904;2023-08-17T06:31:59;15.55;;;9.50;;
79126;SDS011;68528;48.814;8.904;2023-08-17T06:34:25;12.75;;;8.70;;
79126;SDS011;68528;48.814;8.904;2023-08-17T06:36:56;18.80;;;9.23;;
79126;SDS011;68528;48.814;8.904;2023-08-17T06:39:24;18.95;;;11.18;;
79126;SDS011;68528;48.814;8.904;2023-08-17T06:41:50;18.40;;;10.18;;
79126;SDS011;68528;48.814;8.904;2023-08-17T06:44:16;17.08;;;9.93;;
79126;SDS011;68528;48.814;8.904;2023-08-17T06:46:45;13.02;;;7.63;;
79126;SDS011;68528;48.814;8.904;2023-08-17T06:49:11;16.98;;;9.52;;
79126;SDS011;68528;48.814;8.904;2023-08-17T06:51:40;18.63;;;9.68;;
79126;SDS011;68528;48.814;8.904;2023-08-17T06:54:07;13.57;;;8.88;;
79126;SDS011;68528;48.814;8.904;2023-08-17T06:56:34;16.88;;;9.85;;
79126;SDS011;68528;48.814;8.904;2023-08-17T06:59:02;13.88;;;7.38;;
79126;SDS011;68528;48.814;8.904;2023-08-17T07:01:32;12.98;;;6.72;;
79126;SDS011;68528;48.814;8.904;2023-08-17T07:03:57;9.48;;;5.70;;
79126;SDS011;68528;48.814;8.904;2023-08-17T07:06:23;9.20;;;5.95;;
79126;SDS011;68528;48.814;8.904;2023-08-17T07:08:59;11.38;;;6.90;;
79126;SDS011;68528;48.814;8.904;2023-08-17T07:13:55;11.55;;;7.85;;
79126;SDS011;68528;48.814;8.904;2023-08-17T07:16:41;10.45;;;6.25;;
79126;SDS011;68528;48.814;8.904;2023-08-17T07:19:06;10.35;;;7.28;;
79126;SDS011;68528;48.814;8.904;2023-08-17T07:21:32;10.50;;;6.15;;
79126;SDS011;68528;48.814;8.904;2023-08-17T07:24:08;9.07;;;5.68;;
79126;SDS011;68528;48.814;8.904;2023-08-17T07:26:37;15.15;;;9.65;;
79126;SDS011;68528;48.814;8.904;2023-08-17T07:29:03;13.35;;;9.15;;
79126;SDS011;68528;48.814;8.904;2023-08-17T07:31:28;9.93;;;7.18;;
79126;SDS011;68528;48.814;8.904;2023-08-17T07:33:54;11.73;;;6.63;;
79126;SDS011;68528;48.814;8.904;2023-08-17T07:36:19;12.17;;;7.27;;
79126;SDS011;68528;48.814;8.904;2023-08-17T07:38:44;9.63;;;6.37;;
79126;SDS011;68528;48.814;8.904;2023-08-17T07:41:31;11.73;;;7.05;;
79126;SDS011;68528;48.814;8.904;2023-08-17T07:43:56;6.15;;;4.45;;
79126;SDS011;68528;48.814;8.904;2023-08-17T07:46:22;9.98;;;6.78;;
79126;SDS011;68528;48.814;8.904;2023-08-17T07:48:48;13.98;;;8.18;;
79126;SDS011;68528;48.814;8.904;2023-08-17T07:51:14;12.80;;;7.35;;
79126;SDS011;68528;48.814;8.904;2023-08-17T07:53:40;9.88;;;6.18;;
79126;SDS011;68528;48.814;8.904;2023-08-17T07:56:18;11.00;;;5.85;;
79126;SDS011;68528;48.814;8.904;2023-08-17T07:59:35;10.75;;;6.00;;
79126;SDS011;68528;48.814;8.904;2023-08-17T08:02:01;10.27;;;6.65;;
79126;SDS011;68528;48.814;8.904;2023-08-17T08:04:26;11.90;;;7.45;;
79126;SDS011;68528;48.814;8.904;2023-08-17T08:06:53;12.10;;;7.75;;
79126;SDS011;68528;48.814;8.904;2023-08-17T08:09:18;9.32;;;6.60;;
79126;SDS011;68528;48.814;8.904;2023-08-17T08:11:50;13.38;;;9.15;;
79126;SDS011;68528;48.814;8.904;2023-08-17T08:14:27;11.55;;;8.63;;
79126;SDS011;68528;48.814;8.904;2023-08-17T08:16:54;12.23;;;6.85;;
79126;SDS011;68528;48.814;8.904;2023-08-17T08:19:21;8.55;;;6.82;;
79126;SDS011;68528;48.814;8.904;2023-08-17T08:21:47;9.38;;;8.38;;
79126;SDS011;68528;48.814;8.904;2023-08-17T08:24:12;9.73;;;6.35;;
79126;SDS011;68528;48.814;8.904;2023-08-17T08:26:39;9.90;;;6.47;;
79126;SDS011;68528;48.814;8.904;2023-08-17T08:29:04;6.82;;;3.70;;
79126;SDS011;68528;48.814;8.904;2023-08-17T08:31:31;4.72;;;3.13;;
79126;SDS011;68528;48.814;8.904;2023-08-17T08:34:38;3.53;;;3.00;;
79126;SDS011;68528;48.814;8.904;2023-08-17T08:37:06;3.75;;;3.03;;
79126;SDS011;68528;48.814;8.904;2023-08-17T08:39:32;5.70;;;3.97;;
79126;SDS011;68528;48.814;8.904;2023-08-17T08:42:14;5.40;;;3.20;;
79126;SDS011;68528;48.814;8.904;2023-08-17T08:44:39;4.63;;;3.72;;
79126;SDS011;68528;48.814;8.904;2023-08-17T08:47:05;4.65;;;3.28;;
79126;SDS011;68528;48.814;8.904;2023-08-17T08:49:30;4.57;;;3.35;;
79126;SDS011;68528;48.814;8.904;2023-08-17T08:52:34;4.15;;;3.08;;
79126;SDS011;68528;48.814;8.904;2023-08-17T08:55:34;4.13;;;3.38;;
79126;SDS011;68528;48.814;8.904;2023-08-17T08:58:03;4.32;;;2.40;;
79126;SDS011;68528;48.814;8.904;2023-08-17T09:00:32;12.05;;;2.70;;
79126;SDS011;68528;48.814;8.904;2023-08-17T09:02:59;6.47;;;3.15;;
79126;SDS011;68528;48.814;8.904;2023-08-17T09:05:28;4.07;;;3.20;;
79126;SDS011;68528;48.814;8.904;2023-08-17T09:07:56;3.53;;;2.65;;
79126;SDS011;68528;48.814;8.904;2023-08-17T09:14:01;3.60;;;1.90;;
79126;SDS011;68528;48.814;8.904;2023-08-17T09:16:46;3.47;;;2.35;;
79126;SDS011;68528;48.814;8.904;2023-08-17T09:19:12;3.28;;;2.08;;
79126;SDS011;68528;48.814;8.904;2023-08-17T09:21:40;3.90;;;2.42;;
79126;SDS011;68528;48.814;8.904;2023-08-17T09:24:06;3.35;;;2.80;;
79126;SDS011;68528;48.814;8.904;2023-08-17T09:26:37;3.65;;;2.50;;
79126;SDS011;68528;48.814;8.904;2023-08-17T09:31:56;3.65;;;2.58;;
79126;SDS011;68528;48.814;8.904;2023-08-17T09:34:22;5.35;;;2.40;;
79126;SDS011;68528;48.814;8.904;2023-08-17T09:36:48;3.78;;;2.53;;
79126;SDS011;68528;48.814;8.904;2023-08-17T09:39:15;5.90;;;2.45;;
79126;SDS011;68528;48.814;8.904;2023-08-17T09:41:41;6.57;;;2.50;;
79126;SDS011;68528;48.814;8.904;2023-08-17T09:47:20;5.20;;;2.55;;
79126;SDS011;68528;48.814;8.904;2023-08-17T09:49:51;5.30;;;2.58;;
79126;SDS011;68528;48.814;8.904;2023-08-17T09:52:18;4.25;;;2.88;;
79126;SDS011;68528;48.814;8.904;2023-08-17T09:54:45;4.43;;;2.40;;
79126;SDS011;68528;48.814;8.904;2023-08-17T09:57:12;3.05;;;2.00;;
79126;SDS011;68528;48.814;8.904;2023-08-17T09:59:37;4.13;;;2.50;;
79126;SDS011;68528;48.814;8.904;2023-08-17T10:10:50;2.65;;;2.25;;
79126;SDS011;68528;48.814;8.904;2023-08-17T10:13:59;3.35;;;2.20;;
79126;SDS011;68528;48.814;8.904;2023-08-17T10:16:29;4.43;;;2.60;;
79126;SDS011;68528;48.814;8.904;2023-08-17T10:19:46;4.20;;;2.72;;
79126;SDS011;68528;48.814;8.904;2023-08-17T10:22:31;4.00;;;2.42;;
79126;SDS011;68528;48.814;8.904;2023-08-17T10:25:03;2.63;;;2.13;;
79126;SDS011;68528;48.814;8.904;2023-08-17T10:27:32;2.88;;;2.13;;
79126;SDS011;68528;48.814;8.904;2023-08-17T10:29:58;3.67;;;2.30;;
79126;SDS011;68528;48.814;8.904;2023-08-17T10:32:24;4.63;;;2.33;;
79126;SDS011;68528;48.814;8.904;2023-08-17T10:34:51;3.20;;;2.05;;
79126;SDS011;68528;48.814;8.904;2023-08-17T10:37:17;3.67;;;2.00;;
79126;SDS011;68528;48.814;8.904;2023-08-17T10:39:47;5.18;;;2.20;;
79126;SDS011;68528;48.814;8.904;2023-08-17T10:42:13;4.78;;;2.30;;
79126;SDS011;68528;48.814;8.904;2023-08-17T10:44:40;2.25;;;1.92;;
79126;SDS011;68528;48.814;8.904;2023-08-17T10:47:22;4.25;;;2.45;;
79126;SDS011;68528;48.814;8.904;2023-08-17T10:49:55;4.47;;;2.47;;
79126;SDS011;68528;48.814;8.904;2023-08-17T10:52:25;3.35;;;2.30;;
79126;SDS011;68528;48.814;8.904;2023-08-17T10:54:52;5.28;;;2.25;;
79126;SDS011;68528;48.814;8.904;2023-08-17T11:00:19;4.28;;;2.95;;
79126;SDS011;68528;48.814;8.904;2023-08-17T11:03:02;4.13;;;2.90;;
79126;SDS011;68528;48.814;8.904;2023-08-17T11:13:28;4.55;;;2.92;;
79126;SDS011;68528;48.814;8.904;2023-08-17T11:15:56;2.80;;;2.47;;
79126;SDS011;68528;48.814;8.904;2023-08-17T11:18:23;5.55;;;2.63;;
79126;SDS011;68528;48.814;8.904;2023-08-17T11:20:48;3.63;;;2.47;;
79126;SDS011;68528;48.814;8.904;2023-08-17T11:23:14;3.60;;;2.97;;
79126;SDS011;68528;48.814;8.904;2023-08-17T11:25:40;9.88;;;2.78;;
79126;SDS011;68528;48.814;8.904;2023-08-17T11:28:07;3.55;;;2.80;;
79126;SDS011;68528;48.814;8.904;2023-08-17T11:30:36;2.95;;;2.60;;
79126;SDS011;68528;48.814;8.904;2023-08-17T11:33:04;3.33;;;2.55;;
79126;SDS011;68528;48.814;8.904;2023-08-17T11:35:30;5.65;;;2.80;;
79126;SDS011;68528;48.814;8.904;2023-08-17T11:37:56;4.18;;;3.00;;
79126;SDS011;68528;48.814;8.904;2023-08-17T11:40:21;3.50;;;3.08;;
79126;SDS011;68528;48.814;8.904;2023-08-17T11:42:47;3.33;;;2.72;;
79126;SDS011;68528;48.814;8.904;2023-08-17T11:45:13;5.32;;;2.95;;
79126;SDS011;68528;48.814;8.904;2023-08-17T11:48:00;4.07;;;2.78;;
79126;SDS011;68528;48.814;8.904;2023-08-17T11:50:25;5.03;;;3.13;;
79126;SDS011;68528;48.814;8.904;2023-08-17T11:52:51;6.72;;;4.35;;
79126;SDS011;68528;48.814;8.904;2023-08-17T11:55:17;5.68;;;4.05;;
79126;SDS011;68528;48.814;8.904;2023-08-17T11:57:44;4.15;;;3.60;;
79126;SDS011;68528;48.814;8.904;2023-08-17T12:00:17;4.60;;;3.80;;
79126;SDS011;68528;48.814;8.904;2023-08-17T12:02:50;5.72;;;4.18;;
79126;SDS011;68528;48.814;8.904;2023-08-17T12:05:23;4.63;;;3.83;;
79126;SDS011;68528;48.814;8.904;2023-08-17T12:07:54;7.38;;;3.88;;
79126;SDS011;68528;48.814;8.904;2023-08-17T12:10:20;5.88;;;4.03;;
79126;SDS011;68528;48.814;8.904;2023-08-17T12:12:48;7.88;;;5.07;;
79126;SDS011;68528;48.814;8.904;2023-08-17T12:15:20;6.95;;;4.53;;
79126;SDS011;68528;48.814;8.904;2023-08-17T12:18:01;8.38;;;4.50;;
79126;SDS011;68528;48.814;8.904;2023-08-17T12:20:34;5.65;;;3.88;;
79126;SDS011;68528;48.814;8.904;2023-08-17T12:26:44;7.05;;;3.80;;
79126;SDS011;68528;48.814;8.904;2023-08-17T12:29:12;8.48;;;4.50;;
79126;SDS011;68528;48.814;8.904;2023-08-17T12:31:38;8.00;;;3.70;;
79126;SDS011;68528;48.814;8.904;2023-08-17T12:34:05;7.03;;;4.28;;
79126;SDS011;68528;48.814;8.904;2023-08-17T12:37:29;8.57;;;4.65;;
79126;SDS011;68528;48.814;8.904;2023-08-17T12:39:54;8.27;;;4.95;;
79126;SDS011;68528;48.814;8.904;2023-08-17T12:42:21;6.88;;;5.30;;
79126;SDS011;68528;48.814;8.904;2023-08-17T12:44:47;10.20;;;5.85;;
79126;SDS011;68528;48.814;8.904;2023-08-17T12:47:12;12.18;;;6.53;;
79126;SDS011;68528;48.814;8.904;2023-08-17T12:56:09;14.88;;;11.45;;
79126;SDS011;68528;48.814;8.904;2023-08-17T13:01:26;16.30;;;10.50;;
79126;SDS011;68528;48.814;8.904;2023-08-17T13:03:52;11.40;;;9.20;;
79126;SDS011;68528;48.814;8.904;2023-08-17T13:56:10;15.63;;;12.02;;
79126;SDS011;68528;48.814;8.904;2023-08-17T13:58:36;14.75;;;11.95;;
79126;SDS011;68528;48.814;8.904;2023-08-17T14:01:05;14.70;;;9.88;;
79126;SDS011;68528;48.814;8.904;2023-08-17T14:03:32;12.50;;;9.85;;
79126;SDS011;68528;48.814;8.904;2023-08-17T14:05:59;15.55;;;8.52;;
79126;SDS011;68528;48.814;8.904;2023-08-17T14:08:30;11.52;;;8.75;;
79126;SDS011;68528;48.814;8.904;2023-08-17T14:11:01;11.25;;;8.70;;
79126;SDS011;68528;48.814;8.904;2023-08-17T14:13:31;10.57;;;8.43;;
79126;SDS011;68528;48.814;8.904;2023-08-17T14:16:00;13.10;;;9.70;;
79126;SDS011;68528;48.814;8.904;2023-08-17T14:18:28;11.40;;;9.35;;
79126;SDS011;68528;48.814;8.904;2023-08-17T14:27:39;10.20;;;8.65;;
79126;SDS011;68528;48.814;8.904;2023-08-17T14:30:05;13.00;;;8.82;;
79126;SDS011;68528;48.814;8.904;2023-08-17T14:32:33;18.33;;;10.65;;
79126;SDS011;68528;48.814;8.904;2023-08-17T14:34:58;14.27;;;10.95;;
79126;SDS011;68528;48.814;8.904;2023-08-17T14:37:25;14.95;;;10.52;;
79126;SDS011;68528;48.814;8.904;2023-08-17T14:42:59;14.07;;;9.95;;
79126;SDS011;68528;48.814;8.904;2023-08-17T14:45:26;12.70;;;9.23;;
79126;SDS011;68528;48.814;8.904;2023-08-17T14:47:52;9.48;;;7.80;;
79126;SDS011;68528;48.814;8.904;2023-08-17T14:50:17;12.30;;;10.35;;
79126;SDS011;68528;48.814;8.904;2023-08-17T14:52:42;11.93;;;8.65;;
79126;SDS011;68528;48.814;8.904;2023-08-17T14:55:08;11.38;;;9.23;;
79126;SDS011;68528;48.814;8.904;2023-08-17T14:57:37;11.23;;;8.65;;
79126;SDS011;68528;48.814;8.904;2023-08-17T15:00:23;8.38;;;7.47;;
79126;SDS011;68528;48.814;8.904;2023-08-17T15:02:51;10.98;;;8.02;;
79126;SDS011;68528;48.814;8.904;2023-08-17T15:05:45;12.10;;;9.48;;
79126;SDS011;68528;48.814;8.904;2023-08-17T15:08:20;10.38;;;6.22;;
79126;SDS011;68528;48.814;8.904;2023-08-17T15:10:48;7.35;;;5.20;;
79126;SDS011;68528;48.814;8.904;2023-08-17T15:13:15;7.68;;;6.00;;
79126;SDS011;68528;48.814;8.904;2023-08-17T15:15:53;7.78;;;5.63;;
79126;SDS011;68528;48.814;8.904;2023-08-17T15:18:26;7.53;;;4.93;;
79126;SDS011;68528;48.814;8.904;2023-08-17T15:23:51;6.85;;;5.75;;
79126;SDS011;68528;48.814;8.904;2023-08-17T15:26:16;7.93;;;5.47;;
79126;SDS011;68528;48.814;8.904;2023-08-17T15:28:42;7.63;;;6.32;;
79126;SDS011;68528;48.814;8.904;2023-08-17T15:31:07;6.70;;;5.55;;
79126;SDS011;68528;48.814;8.904;2023-08-17T15:33:37;10.98;;;6.55;;
79126;SDS011;68528;48.814;8.904;2023-08-17T15:36:05;10.50;;;6.13;;
79126;SDS011;68528;48.814;8.904;2023-08-17T15:38:33;12.40;;;5.53;;
79126;SDS011;68528;48.814;8.904;2023-08-17T15:41:01;9.95;;;5.80;;
79126;SDS011;68528;48.814;8.904;2023-08-17T15:43:28;9.70;;;5.82;;
79126;SDS011;68528;48.814;8.904;2023-08-17T15:45:53;9.07;;;5.30;;
79126;SDS011;68528;48.814;8.904;2023-08-17T15:48:19;6.70;;;5.43;;
79126;SDS011;68528;48.814;8.904;2023-08-17T15:50:44;4.88;;;3.75;;
79126;SDS011;68528;48.814;8.904;2023-08-17T15:53:10;5.43;;;4.65;;
79126;SDS011;68528;48.814;8.904;2023-08-17T15:55:36;6.70;;;5.00;;
79126;SDS011;68528;48.814;8.904;2023-08-17T15:58:21;5.85;;;4.50;;
79126;SDS011;68528;48.814;8.904;2023-08-17T16:03:41;7.40;;;5.05;;
79126;SDS011;68528;48.814;8.904;2023-08-17T16:06:06;9.27;;;6.47;;
79126;SDS011;68528;48.814;8.904;2023-08-17T16:08:32;9.02;;;5.75;;
79126;SDS011;68528;48.814;8.904;2023-08-17T16:10:58;8.23;;;6.85;;
79126;SDS011;68528;48.814;8.904;2023-08-17T16:13:23;8.63;;;6.25;;
79126;SDS011;68528;48.814;8.904;2023-08-17T16:15:49;8.30;;;6.13;;
79126;SDS011;68528;48.814;8.904;2023-08-17T16:18:14;8.15;;;6.32;;
79126;SDS011;68528;48.814;8.904;2023-08-17T16:20:41;10.20;;;5.25;;
79126;SDS011;68528;48.814;8.904;2023-08-17T16:23:06;6.93;;;4.90;;
79126;SDS011;68528;48.814;8.904;2023-08-17T16:25:44;5.15;;;4.28;;
79126;SDS011;68528;48.814;8.904;2023-08-17T16:28:30;6.88;;;5.25;;
79126;SDS011;68528;48.814;8.904;2023-08-17T16:30:59;5.00;;;4.50;;
79126;SDS011;68528;48.814;8.904;2023-08-17T16:33:47;8.95;;;5.13;;
79126;SDS011;68528;48.814;8.904;2023-08-17T16:36:16;6.47;;;5.28;;
79126;SDS011;68528;48.814;8.904;2023-08-17T16:38:42;9.45;;;5.57;;
79126;SDS011;68528;48.814;8.904;2023-08-17T16:41:08;8.60;;;5.30;;
79126;SDS011;68528;48.814;8.904;2023-08-17T16:43:33;7.63;;;4.45;;
79126;SDS011;68528;48.814;8.904;2023-08-17T16:45:59;7.55;;;4.85;;
79126;SDS011;68528;48.814;8.904;2023-08-17T16:48:44;5.75;;;4.43;;
79126;SDS011;68528;48.814;8.904;2023-08-17T16:51:09;6.50;;;4.68;;